createdAt,value
2022-08-08T00:01:07.961Z,53.83
2022-08-08T00:03:47.546Z,54.61
2022-08-08T00:06:28.654Z,53.95
2022-08-08T00:09:09.535Z,54.44
2022-08-08T00:11:46.459Z,55.04
2022-08-08T00:14:59.331Z,54.79
2022-08-08T00:18:01.665Z,55.79
2022-08-08T00:20:37.402Z,56.34
2022-08-08T00:23:08.541Z,55.99
2022-08-08T00:25:44.932Z,55.89
2022-08-08T00:28:35.530Z,56.13
2022-08-08T00:32:16.273Z,56.33
2022-08-08T00:34:27.510Z,56.71
2022-08-08T00:37:03.542Z,56.39
2022-08-08T00:41:07.362Z,57.41
2022-08-08T00:43:06.047Z,56.87
2022-08-08T00:46:02.123Z,56.63
2022-08-08T00:48:59.290Z,57.51
2022-08-08T00:52:04.379Z,58.19
2022-08-08T00:55:08.283Z,57.75
2022-08-08T00:58:12.650Z,58.02
2022-08-08T01:00:51.353Z,57.77
2022-08-08T01:04:10.929Z,58.56
2022-08-08T01:07:10.695Z,58.99
2022-08-08T01:10:32.471Z,57.97
2022-08-08T01:13:52.586Z,58.88
2022-08-08T01:17:01.996Z,59.91
2022-08-08T01:20:14.991Z,59.43
2022-08-08T01:24:05.383Z,58.47
2022-08-08T01:26:31.798Z,59.20
2022-08-08T01:29:35.507Z,59.54
2022-08-08T01:33:23.945Z,58.83
2022-08-08T01:36:31.956Z,59.67
2022-08-08T01:39:23.891Z,60.44
2022-08-08T01:42:08.166Z,60.71
2022-08-08T01:45:00.469Z,60.21
2022-08-08T01:48:14.873Z,60.31
2022-08-08T01:50:59.932Z,59.07
2022-08-08T01:55:26.314Z,60.41
2022-08-08T01:56:57.945Z,59.41
2022-08-08T02:00:13.094Z,60.09
2022-08-08T02:03:55.601Z,60.10
2022-08-08T02:06:32.469Z,60.45
2022-08-08T02:09:17.664Z,61.17
2022-08-08T02:12:00.224Z,60.99
2022-08-08T02:14:55.173Z,61.09
2022-08-08T02:17:36.555Z,61.51
2022-08-08T02:21:02.498Z,61.96
2022-08-08T02:23:16.052Z,61.66
2022-08-08T02:25:53.122Z,62.48
2022-08-08T02:28:39.051Z,62.23
2022-08-08T02:31:54.111Z,62.10
2022-08-08T02:34:33.088Z,61.99
2022-08-08T02:37:52.013Z,62.65
2022-08-08T02:40:08.629Z,62.66
2022-08-08T02:44:38.280Z,62.85
2022-08-08T02:46:44.243Z,62.66
2022-08-08T02:49:52.962Z,62.31
2022-08-08T02:52:43.437Z,63.02
2022-08-08T02:56:03.675Z,62.97
2022-08-08T02:59:37.198Z,62.45
2022-08-08T03:03:00.676Z,62.51
2022-08-08T03:06:08.112Z,62.77
2022-08-08T03:09:23.082Z,63.83
2022-08-08T03:13:01.776Z,62.63
2022-08-08T03:15:59.350Z,63.29
2022-08-08T03:18:39.274Z,63.39
2022-08-08T03:21:09.704Z,64.21
2022-08-08T03:23:59.757Z,64.03
2022-08-08T03:26:33.574Z,63.56
2022-08-08T03:29:18.753Z,63.94
2022-08-08T03:32:08.416Z,63.56
2022-08-08T03:34:40.452Z,63.91
2022-08-08T03:37:59.562Z,64.00
2022-08-08T03:40:03.744Z,63.66
2022-08-08T03:42:34.150Z,64.14
2022-08-08T03:46:07.443Z,64.50
2022-08-08T03:47:58.951Z,64.15
2022-08-08T03:50:28.211Z,64.53
2022-08-08T03:52:57.329Z,65.36
2022-08-08T03:55:56.424Z,65.38
2022-08-08T03:58:36.418Z,65.62
2022-08-08T04:01:24.385Z,66.04
2022-08-08T04:03:58.834Z,65.49
2022-08-08T04:06:34.780Z,66.04
2022-08-08T04:09:11.387Z,65.36
2022-08-08T04:11:57.911Z,65.78
2022-08-08T04:14:34.437Z,66.88
2022-08-08T04:17:04.507Z,66.83
2022-08-08T04:19:36.934Z,65.84
2022-08-08T04:22:05.566Z,65.47
2022-08-08T04:24:40.218Z,65.92
2022-08-08T04:27:42.561Z,65.30
2022-08-08T04:30:17.282Z,65.60
2022-08-08T04:32:50.416Z,66.22
2022-08-08T04:35:22.909Z,66.12
2022-08-08T04:37:52.318Z,66.11
2022-08-08T04:40:25.184Z,65.71
2022-08-08T04:43:01.639Z,65.79
2022-08-08T04:45:40.484Z,66.05
2022-08-08T04:48:09.058Z,66.32
2022-08-08T04:50:40.273Z,66.61
2022-08-08T04:54:27.047Z,65.88
2022-08-08T04:56:02.837Z,66.19
2022-08-08T04:58:35.521Z,66.87
2022-08-08T05:01:09.075Z,67.05
2022-08-08T05:04:07.956Z,67.84
2022-08-08T05:06:32.719Z,67.18
2022-08-08T05:09:05.822Z,67.47
2022-08-08T05:11:39.954Z,67.30
2022-08-08T05:14:14.780Z,67.38
2022-08-08T05:17:00.647Z,67.73
2022-08-08T05:20:10.602Z,67.07
2022-08-08T05:22:22.074Z,67.73
2022-08-08T05:24:51.876Z,67.88
2022-08-08T05:27:22.784Z,68.16
2022-08-08T05:29:56.434Z,67.69
2022-08-08T05:32:33.055Z,67.51
2022-08-08T05:35:05.682Z,68.21
2022-08-08T05:37:51.890Z,68.22
2022-08-08T05:40:28.572Z,67.96
2022-08-08T05:43:38.067Z,68.13
2022-08-08T05:46:03.191Z,68.21
2022-08-08T05:48:34.600Z,69.56
2022-08-08T05:51:14.637Z,70.21
2022-08-08T05:54:26.205Z,69.38
2022-08-08T05:56:42.449Z,67.32
2022-08-08T05:59:52.379Z,67.82
2022-08-08T06:02:34.073Z,68.72
2022-08-08T06:05:06.901Z,68.68
2022-08-08T06:08:02.741Z,69.43
2022-08-08T06:10:41.700Z,69.21
2022-08-08T06:13:12.494Z,66.53
2022-08-08T06:15:50.501Z,65.82
2022-08-08T06:18:31.462Z,66.11
2022-08-08T06:21:27.846Z,67.33
2022-08-08T06:24:02.164Z,65.55
2022-08-08T06:26:43.879Z,66.22
2022-08-08T06:29:48.545Z,65.52
2022-08-08T06:32:17.181Z,65.27
2022-08-08T06:35:12.346Z,66.37
2022-08-08T06:37:55.999Z,65.36
2022-08-08T06:40:37.006Z,64.73
2022-08-08T06:43:13.329Z,64.85
2022-08-08T06:45:54.094Z,65.33
2022-08-08T06:48:27.388Z,65.93
2022-08-08T06:51:03.270Z,65.50
2022-08-08T06:53:39.945Z,65.82
2022-08-08T06:56:18.723Z,64.13
2022-08-08T06:58:51.704Z,64.40
2022-08-08T07:02:27.502Z,65.25
2022-08-08T07:04:49.750Z,64.88
2022-08-08T07:07:32.920Z,64.93
2022-08-08T07:10:08.270Z,64.67
2022-08-08T07:12:47.570Z,64.75
2022-08-08T07:15:41.143Z,63.74
2022-08-08T07:18:36.217Z,64.04
2022-08-08T07:21:19.272Z,63.92
2022-08-08T07:24:03.399Z,63.71
2022-08-08T07:26:40.787Z,63.33
2022-08-08T07:29:11.653Z,62.78
2022-08-08T07:31:59.815Z,62.94
2022-08-08T07:34:32.412Z,62.29
2022-08-08T07:37:11.527Z,61.66
2022-08-08T07:39:55.883Z,61.89
2022-08-08T07:42:33.291Z,61.88
2022-08-08T07:45:04.425Z,62.34
2022-08-08T07:47:38.836Z,62.11
2022-08-08T07:50:10.686Z,61.68
2022-08-08T07:52:43.720Z,61.01
2022-08-08T07:55:20.209Z,60.95
2022-08-08T07:58:10.143Z,61.17
2022-08-08T08:00:45.419Z,60.65
2022-08-08T08:03:28.317Z,60.64
2022-08-08T08:06:00.555Z,59.86
2022-08-08T08:08:50.142Z,59.81
2022-08-08T08:11:23.388Z,59.67
2022-08-08T08:14:08.437Z,59.30
2022-08-08T08:16:48.715Z,60.03
2022-08-08T08:19:22.710Z,59.88
2022-08-08T08:21:58.385Z,59.73
2022-08-08T08:24:46.709Z,59.71
2022-08-08T08:27:17.589Z,59.89
2022-08-08T08:29:50.992Z,60.02
2022-08-08T08:32:31.481Z,59.21
2022-08-08T08:35:05.345Z,58.16
2022-08-08T08:37:53.059Z,58.16
2022-08-08T08:40:25.928Z,58.17
2022-08-08T08:42:57.270Z,57.08
2022-08-08T08:45:26.473Z,56.92
2022-08-08T08:48:01.106Z,56.58
2022-08-08T08:50:36.201Z,56.33
2022-08-08T08:53:27.432Z,55.62
2022-08-08T08:56:12.276Z,56.10
2022-08-08T08:58:46.994Z,55.45
2022-08-08T09:01:31.021Z,55.85
2022-08-08T09:04:04.096Z,55.27
2022-08-08T09:06:44.769Z,54.75
2022-08-08T09:09:35.372Z,54.35
2022-08-08T09:12:20.038Z,53.34
2022-08-08T09:14:52.635Z,52.34
2022-08-08T09:17:40.820Z,51.62
2022-08-08T09:21:58.547Z,51.97
2022-08-08T09:23:02.857Z,49.55
2022-08-08T09:25:35.515Z,49.08
2022-08-08T09:28:35.731Z,49.68
2022-08-08T09:31:13.272Z,47.48
2022-08-08T09:34:14.604Z,47.59
2022-08-08T09:36:35.993Z,46.68
2022-08-08T09:39:15.516Z,46.91
2022-08-08T09:42:19.862Z,46.32
2022-08-08T09:45:03.656Z,45.62
2022-08-08T09:48:09.796Z,47.31
2022-08-08T09:50:28.281Z,48.20
2022-08-08T09:53:05.551Z,46.40
2022-08-08T09:56:05.389Z,45.82
2022-08-08T09:58:41.396Z,44.46
2022-08-08T10:01:15.497Z,43.57
2022-08-08T10:04:04.916Z,44.07
2022-08-08T10:06:35.830Z,44.16
2022-08-08T10:09:08.360Z,44.53
2022-08-08T10:12:26.574Z,43.99
2022-08-08T10:14:38.708Z,43.91
2022-08-08T10:17:38.528Z,44.26
2022-08-08T10:20:00.921Z,43.53
2022-08-08T10:22:30.501Z,43.71
2022-08-08T10:25:05.369Z,44.17
2022-08-08T10:27:43.292Z,42.88
2022-08-08T10:30:16.824Z,42.47
2022-08-08T10:33:01.491Z,41.86
2022-08-08T10:36:08.802Z,41.66
2022-08-08T10:38:21.387Z,41.11
2022-08-08T10:40:53.859Z,42.46
2022-08-08T10:43:22.991Z,40.55
2022-08-08T10:45:57.295Z,40.51
2022-08-08T10:48:38.796Z,38.06
2022-08-08T10:51:24.469Z,39.00
2022-08-08T10:53:58.087Z,37.86
2022-08-08T10:56:32.282Z,37.15
2022-08-08T10:59:07.768Z,36.54
2022-08-08T11:01:38.364Z,35.38
2022-08-08T11:04:10.839Z,36.11
2022-08-08T11:06:41.835Z,36.47
2022-08-08T11:09:21.641Z,37.68
2022-08-08T11:12:05.960Z,38.27
2022-08-08T11:14:52.697Z,35.78
2022-08-08T11:17:59.659Z,35.56
2022-08-08T11:20:13.934Z,36.02
2022-08-08T11:22:43.529Z,35.45
2022-08-08T11:25:14.058Z,35.89
2022-08-08T11:27:44.488Z,35.73
2022-08-08T11:30:24.555Z,35.28
2022-08-08T11:32:57.087Z,35.41
2022-08-08T11:35:38.658Z,33.78
2022-08-08T11:38:36.329Z,34.72
2022-08-08T11:41:02.975Z,35.63
2022-08-08T11:43:39.538Z,34.59
2022-08-08T11:46:17.862Z,34.95
2022-08-08T11:48:47.777Z,34.94
2022-08-08T11:51:38.564Z,32.83
2022-08-08T11:54:26.929Z,33.47
2022-08-08T11:56:57.779Z,33.72
2022-08-08T11:59:58.492Z,33.30
2022-08-08T12:02:39.921Z,33.11
2022-08-08T12:05:12.193Z,32.55
2022-08-08T12:07:49.682Z,32.88
2022-08-08T12:10:23.356Z,32.75
2022-08-08T12:13:01.393Z,31.49
2022-08-08T12:15:42.861Z,32.21
2022-08-08T12:18:20.590Z,31.84
2022-08-08T12:20:50.555Z,32.34
2022-08-08T12:23:42.932Z,30.85
2022-08-08T12:26:28.181Z,31.23
2022-08-08T12:29:19.564Z,31.36
2022-08-08T12:32:02.627Z,31.85
2022-08-08T12:34:36.768Z,31.15
2022-08-08T12:37:08.437Z,30.38
2022-08-08T12:39:58.177Z,31.38
2022-08-08T12:42:33.008Z,31.01
2022-08-08T12:45:54.004Z,30.72
2022-08-08T12:48:10.243Z,30.57
2022-08-08T12:50:51.065Z,30.37
2022-08-08T12:53:30.188Z,30.75
2022-08-08T12:56:18.082Z,30.83
2022-08-08T12:58:55.404Z,30.41
2022-08-08T13:01:36.869Z,30.76
2022-08-08T13:04:18.558Z,30.23
2022-08-08T13:07:00.924Z,31.11
2022-08-08T13:09:43.221Z,30.22
2022-08-08T13:12:29.606Z,31.05
2022-08-08T13:15:03.323Z,31.23
2022-08-08T13:18:07.873Z,30.57
2022-08-08T13:20:27.481Z,30.76
2022-08-08T13:23:35.743Z,30.59
2022-08-08T13:25:50.255Z,30.67
2022-08-08T13:28:32.193Z,30.27
2022-08-08T13:31:03.965Z,30.35
2022-08-08T13:33:42.027Z,30.81
2022-08-08T13:36:11.743Z,31.15
2022-08-08T13:38:40.118Z,31.37
2022-08-08T13:41:15.890Z,31.27
2022-08-08T13:43:46.963Z,31.16
2022-08-08T13:46:26.476Z,31.04
2022-08-08T13:49:12.024Z,31.75
2022-08-08T13:51:57.048Z,30.66
2022-08-08T13:54:29.383Z,31.39
2022-08-08T13:57:08.535Z,31.25
2022-08-08T13:59:41.001Z,30.91
2022-08-08T14:02:20.659Z,30.79
2022-08-08T14:05:04.750Z,31.19
2022-08-08T14:07:39.639Z,31.17
2022-08-08T14:10:17.375Z,30.69
2022-08-08T14:12:46.726Z,29.79
2022-08-08T14:15:31.527Z,30.75
2022-08-08T14:18:36.139Z,31.66
2022-08-08T14:21:12.639Z,32.45
2022-08-08T14:24:07.069Z,32.13
2022-08-08T14:26:33.212Z,31.59
2022-08-08T14:29:06.096Z,32.18
2022-08-08T14:32:10.500Z,32.27
2022-08-08T14:34:37.173Z,31.80
2022-08-08T14:37:08.388Z,31.75
2022-08-08T14:39:48.002Z,31.94
2022-08-08T14:42:17.472Z,32.39
2022-08-08T14:44:55.248Z,32.75
2022-08-08T14:47:23.407Z,32.04
2022-08-08T14:50:10.812Z,32.89
2022-08-08T14:52:46.420Z,32.28
2022-08-08T14:55:16.370Z,32.37
2022-08-08T14:58:06.008Z,32.67
2022-08-08T15:00:38.111Z,32.73
2022-08-08T15:03:14.989Z,32.77
2022-08-08T15:05:52.271Z,33.05
2022-08-08T15:08:34.674Z,33.15
2022-08-08T15:11:09.403Z,33.41
2022-08-08T15:13:57.960Z,33.65
2022-08-08T15:16:28.381Z,33.84
2022-08-08T15:18:56.189Z,34.35
2022-08-08T15:21:27.759Z,34.36
2022-08-08T15:23:58.238Z,33.53
2022-08-08T15:26:28.959Z,33.75
2022-08-08T15:28:57.764Z,34.30
2022-08-08T15:32:03.954Z,34.39
2022-08-08T15:34:18.698Z,34.69
2022-08-08T15:37:03.103Z,34.80
2022-08-08T15:39:37.895Z,35.08
2022-08-08T15:42:10.524Z,35.00
2022-08-08T15:44:42.483Z,34.85
2022-08-08T15:47:15.604Z,35.50
2022-08-08T15:49:48.171Z,35.90
2022-08-08T15:52:21.500Z,35.63
2022-08-08T15:54:52.474Z,35.88
2022-08-08T15:57:21.475Z,36.12
2022-08-08T16:00:05.099Z,35.96
2022-08-08T16:02:50.515Z,35.94
2022-08-08T16:05:21.221Z,36.34
2022-08-08T16:07:52.297Z,36.39
2022-08-08T16:13:11.640Z,36.06
2022-08-08T16:13:30.651Z,36.13
2022-08-08T16:16:09.611Z,36.12
2022-08-08T16:18:56.166Z,36.47
2022-08-08T16:21:29.374Z,36.63
2022-08-08T16:24:00.449Z,36.38
2022-08-08T16:26:33.727Z,36.55
2022-08-08T16:29:03.313Z,36.71
2022-08-08T16:31:35.477Z,36.24
2022-08-08T16:34:05.811Z,36.56
2022-08-08T16:36:34.382Z,37.01
2022-08-08T16:39:16.944Z,37.00
2022-08-08T16:41:53.174Z,37.09
2022-08-08T16:44:28.040Z,37.72
2022-08-08T16:47:16.704Z,37.16
2022-08-08T16:49:44.673Z,37.87
2022-08-08T16:55:03.982Z,37.93
2022-08-08T16:55:33.795Z,37.80
2022-08-08T16:58:14.696Z,37.67
2022-08-08T17:00:49.082Z,37.30
2022-08-08T17:03:24.711Z,37.39
2022-08-08T17:06:36.848Z,37.77
2022-08-08T17:08:56.332Z,38.28
2022-08-08T17:11:28.102Z,38.44
2022-08-08T17:14:01.126Z,38.34
2022-08-08T17:16:29.806Z,38.06
2022-08-08T17:19:00.491Z,38.07
2022-08-08T17:21:37.489Z,38.69
2022-08-08T17:24:19.456Z,38.44
2022-08-08T17:26:58.024Z,38.75
2022-08-08T17:29:26.839Z,38.55
2022-08-08T17:31:54.739Z,38.88
2022-08-08T17:34:49.739Z,39.01
2022-08-08T17:37:13.873Z,38.99
2022-08-08T17:40:03.850Z,39.43
2022-08-08T17:42:31.336Z,39.62
2022-08-08T17:44:59.357Z,39.85
2022-08-08T17:47:40.587Z,39.52
2022-08-08T17:50:10.298Z,40.27
2022-08-08T17:52:43.307Z,40.39
2022-08-08T17:56:06.022Z,39.58
2022-08-08T17:58:01.848Z,39.98
2022-08-08T18:00:31.267Z,40.61
2022-08-08T18:03:08.595Z,40.09
2022-08-08T18:05:44.227Z,40.06
2022-08-08T18:08:24.657Z,40.08
2022-08-08T18:11:07.147Z,40.28
2022-08-08T18:13:41.663Z,40.30
2022-08-08T18:16:11.078Z,40.55
2022-08-08T18:18:45.236Z,40.13
2022-08-08T18:21:35.466Z,40.46
2022-08-08T18:24:17.237Z,41.00
2022-08-08T18:26:54.269Z,42.31
2022-08-08T18:29:30.080Z,43.52
2022-08-08T18:32:03.360Z,42.96
2022-08-08T18:34:33.227Z,43.11
2022-08-08T18:37:04.621Z,42.89
2022-08-08T18:39:36.429Z,42.78
2022-08-08T18:42:13.954Z,42.87
2022-08-08T18:44:55.013Z,43.19
2022-08-08T18:47:24.270Z,43.29
2022-08-08T18:49:57.824Z,42.80
2022-08-08T18:52:28.152Z,42.53
2022-08-08T18:54:58.119Z,42.41
2022-08-08T18:57:31.878Z,42.36
2022-08-08T19:00:16.575Z,43.30
2022-08-08T19:02:56.455Z,42.79
2022-08-08T19:05:31.749Z,42.48
2022-08-08T19:08:04.186Z,43.46
2022-08-08T19:10:32.155Z,42.98
2022-08-08T19:13:00.102Z,43.48
2022-08-08T19:15:34.184Z,42.95
2022-08-08T19:18:33.276Z,42.64
2022-08-08T19:20:50.857Z,43.62
2022-08-08T19:23:21.586Z,43.79
2022-08-08T19:26:20.482Z,43.25
2022-08-08T19:28:41.402Z,43.73
2022-08-08T19:31:13.172Z,43.52
2022-08-08T19:34:04.299Z,43.51
2022-08-08T19:36:33.252Z,43.67
2022-08-08T19:39:01.366Z,44.24
2022-08-08T19:41:29.916Z,43.89
2022-08-08T19:44:03.726Z,44.30
2022-08-08T19:46:34.963Z,44.39
2022-08-08T19:49:03.241Z,44.72
2022-08-08T19:51:34.278Z,45.43
2022-08-08T19:54:03.031Z,45.21
2022-08-08T19:56:40.622Z,45.36
2022-08-08T19:59:10.108Z,45.24
2022-08-08T20:02:02.568Z,45.59
2022-08-08T20:04:29.691Z,45.65
2022-08-08T20:06:57.677Z,46.15
2022-08-08T20:09:29.879Z,46.19
2022-08-08T20:12:00.328Z,46.44
2022-08-08T20:14:34.871Z,46.35
2022-08-08T20:17:05.968Z,46.52
2022-08-08T20:19:42.285Z,46.99
2022-08-08T20:22:13.189Z,45.98
2022-08-08T20:24:49.472Z,46.53
2022-08-08T20:27:20.444Z,46.84
2022-08-08T20:30:00.441Z,46.87
2022-08-08T20:32:31.801Z,47.02
2022-08-08T20:35:02.265Z,47.37
2022-08-08T20:37:37.343Z,47.77
2022-08-08T20:40:33.718Z,48.20
2022-08-08T20:43:16.360Z,48.23
2022-08-08T20:45:57.801Z,48.01
2022-08-08T20:48:32.431Z,48.16
2022-08-08T20:51:05.546Z,48.14
2022-08-08T20:53:59.862Z,48.19
2022-08-08T20:56:35.541Z,48.73
2022-08-08T20:59:08.893Z,48.71
2022-08-08T21:02:05.391Z,49.44
2022-08-08T21:04:27.699Z,49.22
2022-08-08T21:06:55.917Z,49.41
2022-08-08T21:09:24.269Z,49.40
2022-08-08T21:12:03.290Z,49.39
2022-08-08T21:14:33.594Z,49.30
2022-08-08T21:17:03.099Z,49.18
2022-08-08T21:19:45.854Z,49.36
2022-08-08T21:22:16.009Z,49.64
2022-08-08T21:24:52.614Z,49.56
2022-08-08T21:28:06.516Z,49.53
2022-08-08T21:30:18.953Z,50.19
2022-08-08T21:32:51.766Z,49.93
2022-08-08T21:36:14.882Z,50.13
2022-08-08T21:38:16.179Z,50.12
2022-08-08T21:40:56.491Z,50.17
2022-08-08T21:43:33.882Z,50.40
2022-08-08T21:48:07.513Z,51.26
2022-08-08T21:48:52.022Z,51.09
2022-08-08T21:54:35.828Z,51.46
2022-08-08T21:54:36.225Z,51.89
2022-08-08T21:56:59.541Z,52.33
2022-08-08T21:59:44.244Z,52.27
2022-08-08T22:02:19.598Z,53.39
2022-08-08T22:04:51.034Z,53.48
2022-08-08T22:07:26.191Z,53.44
2022-08-08T22:10:09.880Z,53.93
2022-08-08T22:12:46.933Z,54.00
2022-08-08T22:15:14.907Z,53.96
2022-08-08T22:17:45.640Z,54.31
2022-08-08T22:20:23.458Z,54.45
2022-08-08T22:22:53.570Z,54.46
2022-08-08T22:25:25.290Z,54.37
2022-08-08T22:28:03.718Z,54.41
2022-08-08T22:30:42.574Z,55.08
2022-08-08T22:34:11.007Z,55.39
2022-08-08T22:36:04.198Z,54.92
2022-08-08T22:38:48.305Z,55.23
2022-08-08T22:41:21.182Z,55.56
2022-08-08T22:44:02.512Z,55.30
2022-08-08T22:46:34.353Z,54.72
2022-08-08T22:49:06.698Z,54.97
2022-08-08T22:51:42.743Z,55.57
2022-08-08T22:54:32.197Z,55.89
2022-08-08T22:57:08.691Z,56.25
2022-08-08T22:59:48.411Z,56.07
2022-08-08T23:02:29.528Z,56.80
2022-08-08T23:05:02.215Z,56.46
2022-08-08T23:07:51.407Z,56.41
2022-08-08T23:10:25.412Z,56.47
2022-08-08T23:12:55.218Z,56.91
2022-08-08T23:16:39.286Z,56.47
2022-08-08T23:18:12.456Z,57.39
2022-08-08T23:20:40.998Z,57.32
2022-08-08T23:23:11.532Z,57.09
2022-08-08T23:25:47.907Z,57.90
2022-08-08T23:28:18.889Z,57.63
2022-08-08T23:30:47.347Z,57.91
2022-08-08T23:33:20.930Z,58.45
2022-08-08T23:36:07.776Z,58.17
2022-08-08T23:38:41.732Z,58.51
2022-08-08T23:41:24.511Z,58.71
2022-08-08T23:43:56.769Z,59.29
2022-08-08T23:49:07.122Z,59.46
2022-08-08T23:49:14.232Z,59.84
2022-08-08T23:52:06.147Z,59.94
2022-08-08T23:54:41.695Z,59.29
2022-08-08T23:57:26.907Z,59.69
